Time;durP1;ratioP1;P1;durP2;ratioP2;P2;SDS_P1;SDS_P2;PMS_P1;PMS_P2;Temp;Humidity;BMP_temperature;BMP_pressure;BME280_temperature;BME280_humidity;BME280_pressure;Samples;Min_cycle;Max_cycle;Signal;HPM_P1;HPM_P2
2023/05/20 00:01:24;;;;;;;;;41.00;34.67;;;;;15.19;100.00;100058.16;6280266;20;3589916;-63
2023/05/20 00:03:52;;;;;;;;;41.33;36.00;;;;;15.27;100.00;100057.56;6283786;20;3602351;-62
2023/05/20 00:06:21;;;;;;;;;32.33;31.33;;;;;15.26;100.00;100056.72;6281151;20;3590473;-64
2023/05/20 00:08:50;;;;;;;;;36.67;31.33;;;;;15.25;100.00;100055.00;6281500;20;3608699;-63
2023/05/20 00:11:18;;;;;;;;;38.33;34.33;;;;;15.21;100.00;100044.53;6314301;20;3597190;-63
2023/05/20 00:13:46;;;;;;;;;38.00;33.67;;;;;15.06;100.00;100050.13;6282380;20;3604509;-63
2023/05/20 00:16:15;;;;;;;;;42.00;37.50;;;;;14.95;100.00;100039.22;6284675;20;2850316;-64
2023/05/20 00:18:43;;;;;;;;;40.33;34.33;;;;;15.04;100.00;100045.78;6289335;20;3584631;-63
2023/05/20 00:21:11;;;;;;;;;39.00;32.33;;;;;14.99;100.00;100038.00;6283429;20;3598222;-63
2023/05/20 00:23:40;;;;;;;;;36.67;34.00;;;;;15.11;100.00;100037.13;6288154;20;3589838;-63
2023/05/20 00:26:09;;;;;;;;;36.33;32.33;;;;;14.89;100.00;100036.97;6288792;20;3600295;-62
2023/05/20 00:28:38;;;;;;;;;46.33;39.00;;;;;14.73;100.00;100030.97;6284292;20;2856843;-62
2023/05/20 00:31:06;;;;;;;;;47.33;38.00;;;;;14.86;100.00;100031.78;6315487;20;3597531;-63
2023/05/20 00:33:35;;;;;;;;;39.67;33.67;;;;;14.78;100.00;100034.19;6286338;20;3610741;-63
2023/05/20 00:36:04;;;;;;;;;31.33;31.33;;;;;14.79;100.00;100035.91;6285790;20;3585739;-63
2023/05/20 00:38:33;;;;;;;;;41.00;32.33;;;;;14.64;100.00;100038.78;6286546;20;3603399;-63
2023/05/20 00:41:01;;;;;;;;;41.00;36.00;;;;;14.57;100.00;100032.09;6287345;20;3609627;-63
2023/05/20 00:43:30;;;;;;;;;36.67;34.00;;;;;14.45;100.00;100044.59;6283175;20;2851435;-63
2023/05/20 00:46:00;;;;;;;;;32.67;30.33;;;;;14.76;100.00;100041.56;6314550;20;3598227;-63
2023/05/20 00:48:40;;;;;;;;;44.50;37.00;;;;;14.54;100.00;100042.25;6279213;20;2840911;-62
2023/05/20 00:51:10;;;;;;;;;39.00;34.50;;;;;14.57;100.00;100048.28;6282676;20;2831545;-63
2023/05/20 00:53:41;;;;;;;;;46.33;38.00;;;;;14.73;100.00;100053.44;6285281;20;2858760;-63
2023/05/20 00:56:09;;;;;;;;;39.00;34.33;;;;;14.94;100.00;100051.00;6315366;20;3607545;-63
2023/05/20 00:58:38;;;;;;;;;33.67;29.33;;;;;14.87;100.00;100039.78;6282738;20;3588852;-63
2023/05/20 01:01:07;;;;;;;;;37.33;33.00;;;;;15.02;100.00;100051.31;6283190;20;3608612;-63
2023/05/20 01:03:35;;;;;;;;;36.33;32.00;;;;;15.13;100.00;100045.94;6289692;20;3590913;-64
2023/05/20 01:06:04;;;;;;;;;35.33;31.00;;;;;15.12;100.00;100046.09;6280558;20;3591995;-63
2023/05/20 01:08:33;;;;;;;;;35.33;34.00;;;;;14.87;100.00;100049.72;6288199;20;3581504;-64
2023/05/20 01:11:19;;;;;;;;;33.33;31.33;;;;;14.60;100.00;100047.22;6284731;20;3583688;-64
2023/05/20 01:13:55;;;;;;;;;35.67;33.00;;;;;14.52;100.00;100041.47;6281324;20;3590995;-63
2023/05/20 01:16:24;;;;;;;;;29.33;27.00;;;;;14.47;100.00;100039.94;6282592;20;3600274;-64
2023/05/20 01:18:56;;;;;;;;;32.33;30.33;;;;;14.23;100.00;100037.19;6284300;20;3574183;-63
2023/05/20 01:21:26;;;;;;;;;37.33;32.00;;;;;14.25;100.00;100037.06;6277490;20;3600279;-63
2023/05/20 01:23:55;;;;;;;;;35.00;30.67;;;;;14.31;100.00;100042.03;6279874;20;3600337;-62
2023/05/20 01:26:25;;;;;;;;;31.33;30.33;;;;;14.41;100.00;100047.66;6280039;20;3584645;-63
2023/05/20 01:28:56;;;;;;;;;33.67;31.67;;;;;14.21;100.00;100044.50;6284348;20;3589851;-62
2023/05/20 01:31:32;;;;;;;;;30.67;30.00;;;;;14.22;100.00;100048.09;6280634;20;3579516;-63
2023/05/20 01:34:02;;;;;;;;;34.67;31.67;;;;;14.17;100.00;100043.03;6281353;20;3597232;-63
2023/05/20 01:36:31;;;;;;;;;34.50;31.00;;;;;14.14;100.00;100056.75;6278019;20;2851352;-63
2023/05/20 01:39:01;;;;;;;;;30.33;29.67;;;;;14.11;100.00;100059.63;6283023;20;3598228;-62
2023/05/20 01:41:33;;;;;;;;;32.33;31.00;;;;;14.19;100.00;100053.69;6279518;20;3585812;-63
2023/05/20 01:44:01;;;;;;;;;33.33;30.00;;;;;14.13;100.00;100052.28;6285009;20;3599222;-62
2023/05/20 01:46:33;;;;;;;;;33.00;30.00;;;;;13.94;100.00;100054.56;6279484;20;3585674;-62
2023/05/20 01:49:01;;;;;;;;;31.33;28.67;;;;;14.03;100.00;100052.09;6282792;20;3582522;-62
2023/05/20 01:51:32;;;;;;;;;35.00;29.33;;;;;14.09;100.00;100053.50;6286957;20;3589869;-62
2023/05/20 01:54:00;;;;;;;;;30.00;29.00;;;;;13.94;100.00;100051.88;6314898;20;3557552;-62
2023/05/20 01:56:29;;;;;;;;;31.33;29.33;;;;;14.10;100.00;100052.53;6278237;20;3576438;-63
2023/05/20 01:58:57;;;;;;;;;34.67;30.33;;;;;13.95;100.00;100058.97;6285078;20;3596555;-62
2023/05/20 02:01:25;;;;;;;;;30.33;28.67;;;;;13.90;100.00;100059.34;6283660;20;3588828;-62
2023/05/20 02:03:54;;;;;;;;;30.33;29.00;;;;;13.92;100.00;100057.38;6283794;20;3582689;-62
2023/05/20 02:06:22;;;;;;;;;35.33;30.00;;;;;13.77;100.00;100055.72;6280923;20;3604550;-62
2023/05/20 02:08:50;;;;;;;;;32.00;29.67;;;;;13.86;100.00;100062.34;6279692;20;3600426;-62
2023/05/20 02:11:18;;;;;;;;;33.67;31.00;;;;;13.97;100.00;100059.75;6287777;20;3577452;-62
2023/05/20 02:13:48;;;;;;;;;36.00;30.00;;;;;13.78;100.00;100052.06;6282180;20;3599379;-62
2023/05/20 02:16:17;;;;;;;;;34.33;30.67;;;;;13.65;100.00;100048.50;6284368;20;3597207;-62
2023/05/20 02:18:45;;;;;;;;;32.67;31.67;;;;;13.64;100.00;100047.63;6287465;20;3596103;-62
2023/05/20 02:21:13;;;;;;;;;30.33;28.67;;;;;13.66;100.00;100045.66;6286137;20;3568068;-63
2023/05/20 02:23:41;;;;;;;;;33.67;30.00;;;;;13.45;100.00;100047.13;6312379;20;3583560;-63
2023/05/20 02:26:10;;;;;;;;;31.67;30.67;;;;;13.53;100.00;100052.88;6283603;20;3584668;-63
2023/05/20 02:28:43;;;;;;;;;31.67;29.00;;;;;13.26;100.00;100048.38;6280824;20;3588861;-62
2023/05/20 02:31:12;;;;;;;;;34.00;31.00;;;;;13.51;100.00;100058.38;6313930;20;3602348;-62
2023/05/20 02:33:41;;;;;;;;;31.00;28.00;;;;;13.56;100.00;100050.84;6280274;20;2850401;-62
2023/05/20 02:36:09;;;;;;;;;36.33;31.33;;;;;13.47;100.00;100059.56;6313723;20;3598186;-62
2023/05/20 02:38:38;;;;;;;;;29.00;29.00;;;;;13.37;100.00;100062.00;6284720;20;3587783;-61
2023/05/20 02:41:06;;;;;;;;;34.00;31.00;;;;;13.33;100.00;100060.50;6284534;20;3594038;-62
2023/05/20 02:43:35;;;;;;;;;30.67;29.33;;;;;13.22;100.00;100063.00;6278889;20;3601341;-63
2023/05/20 02:46:03;;;;;;;;;28.33;27.00;;;;;13.15;100.00;100056.28;6281717;20;3606525;-62
2023/05/20 02:48:31;;;;;;;;;28.33;27.33;;;;;13.15;100.00;100061.69;6282173;20;3590905;-63
2023/05/20 02:51:00;;;;;;;;;28.00;27.00;;;;;13.03;100.00;100057.09;6281409;20;3600279;-62
2023/05/20 02:53:28;;;;;;;;;31.67;29.00;;;;;13.03;100.00;100060.66;6280197;20;3576414;-62
2023/05/20 02:55:57;;;;;;;;;30.67;27.67;;;;;13.01;100.00;100064.44;6278756;20;3583663;-63
2023/05/20 02:58:26;;;;;;;;;30.33;29.00;;;;;12.98;100.00;100065.50;6278682;20;3567968;-62
2023/05/20 03:00:56;;;;;;;;;32.00;24.67;;;;;13.07;100.00;100064.88;6310838;20;3605460;-62
2023/05/20 03:03:28;;;;;;;;;32.67;30.67;;;;;13.18;100.00;100067.72;6279257;20;3584664;-62
2023/05/20 03:05:56;;;;;;;;;32.33;31.00;;;;;13.17;100.00;100074.09;6283026;20;3585733;-62
2023/05/20 03:08:24;;;;;;;;;37.33;33.00;;;;;13.06;100.00;100075.75;6278978;20;3608589;-60
2023/05/20 03:10:53;;;;;;;;;29.00;29.00;;;;;13.06;100.00;100075.75;6281850;20;3578552;-60
2023/05/20 03:13:22;;;;;;;;;31.33;30.33;;;;;13.21;100.00;100077.44;6278775;20;2845114;-60
2023/05/20 03:15:50;;;;;;;;;28.67;27.00;;;;;13.00;100.00;100076.16;6311837;20;3604463;-61
2023/05/20 03:18:18;;;;;;;;;30.00;30.00;;;;;12.90;100.00;100086.66;6281455;20;3579465;-61
2023/05/20 03:20:47;;;;;;;;;30.67;27.33;;;;;13.25;100.00;100078.97;6279436;20;2860820;-61
2023/05/20 03:23:16;;;;;;;;;27.67;26.33;;;;;13.15;100.00;100088.66;6312851;20;3600362;-61
2023/05/20 03:25:45;;;;;;;;;33.67;30.67;;;;;13.18;100.00;100088.44;6285112;20;3592992;-61
2023/05/20 03:28:13;;;;;;;;;34.00;29.50;;;;;13.25;100.00;100089.78;6278506;20;2854455;-62
2023/05/20 03:30:42;;;;;;;;;28.33;26.00;;;;;13.30;100.00;100087.66;6276663;20;2860793;-62
2023/05/20 03:33:10;;;;;;;;;28.67;27.00;;;;;13.15;100.00;100094.03;6312787;20;3594037;-62
2023/05/20 03:35:40;;;;;;;;;31.00;30.00;;;;;13.15;100.00;100100.28;6278712;20;2843067;-62
2023/05/20 03:38:08;;;;;;;;;28.00;27.00;;;;;13.35;100.00;100101.72;6313271;20;3600287;-62
2023/05/20 03:40:36;;;;;;;;;32.00;30.00;;;;;13.23;100.00;100099.78;6284537;20;3582642;-62
2023/05/20 03:43:04;;;;;;;;;32.00;30.00;;;;;13.05;100.00;100109.94;6278006;20;3600383;-62
2023/05/20 03:45:33;;;;;;;;;28.33;27.33;;;;;12.93;100.00;100108.91;6275609;20;3608719;-61
2023/05/20 03:48:02;;;;;;;;;30.67;26.00;;;;;13.19;100.00;100098.25;6309790;20;3603392;-62
2023/05/20 03:50:31;;;;;;;;;27.00;25.00;;;;;13.15;100.00;100091.34;6285526;20;3598267;-61
2023/05/20 03:53:00;;;;;;;;;32.00;28.00;;;;;12.93;100.00;100089.19;6283122;20;3600389;-62
2023/05/20 03:55:29;;;;;;;;;34.67;32.33;;;;;12.85;100.00;100094.19;6315723;20;2852490;-62
2023/05/20 03:57:58;;;;;;;;;35.67;32.33;;;;;12.85;100.00;100095.06;6316497;20;3598252;-62
2023/05/20 04:00:26;;;;;;;;;30.33;30.33;;;;;13.12;100.00;100091.53;6319799;20;3567978;-62
2023/05/20 04:02:55;;;;;;;;;30.00;30.00;;;;;13.59;100.00;100099.19;6282128;20;3581492;-62
2023/05/20 04:05:23;;;;;;;;;31.67;29.67;;;;;13.68;100.00;100107.63;6285935;20;3581502;-63
2023/05/20 04:07:52;;;;;;;;;31.33;29.00;;;;;13.45;100.00;100106.47;6284916;20;3589847;-62
2023/05/20 04:10:21;;;;;;;;;33.33;29.33;;;;;13.96;100.00;100117.44;6281837;20;2838939;-62
2023/05/20 04:12:49;;;;;;;;;30.00;28.00;;;;;13.91;100.00;100116.88;6319212;20;3602360;-62
2023/05/20 04:15:18;;;;;;;;;24.50;24.50;;;;;14.31;100.00;100116.81;6285003;20;2846108;-63
2023/05/20 04:17:47;;;;;;;;;31.00;28.67;;;;;14.32;100.00;100113.13;6288256;20;3601858;-62
2023/05/20 04:20:17;;;;;;;;;26.00;26.00;;;;;14.32;100.00;100118.53;6282099;20;3602341;-62
2023/05/20 04:22:46;;;;;;;;;26.33;26.33;;;;;14.62;100.00;100121.78;6308089;20;3596133;-63
2023/05/20 04:25:16;;;;;;;;;27.00;22.33;;;;;14.75;100.00;100120.94;6286285;20;2852442;-62
2023/05/20 04:27:44;;;;;;;;;23.00;23.00;;;;;14.97;100.00;100126.50;6316897;20;3580523;-62
2023/05/20 04:30:15;;;;;;;;;26.33;25.00;;;;;14.90;100.00;100122.50;6283169;20;2848268;-62
2023/05/20 04:32:43;;;;;;;;;25.00;21.50;;;;;14.82;100.00;100124.91;6316245;20;2843103;-62
2023/05/20 04:35:12;;;;;;;;;26.00;24.67;;;;;15.22;100.00;100135.50;6285520;20;3602516;-62
2023/05/20 04:37:41;;;;;;;;;22.33;22.33;;;;;15.46;100.00;100139.13;6287696;20;3577435;-62
2023/05/20 04:40:11;;;;;;;;;22.00;21.67;;;;;15.83;100.00;100143.63;6282129;20;2837881;-64
2023/05/20 04:42:39;;;;;;;;;23.67;22.00;;;;;17.00;94.45;100144.34;6315411;20;3561870;-63
2023/05/20 04:45:08;;;;;;;;;25.33;22.00;;;;;16.66;95.52;100135.31;6277903;20;3587790;-62
2023/05/20 04:47:38;;;;;;;;;21.00;19.67;;;;;16.64;96.42;100148.13;6282787;20;2841082;-63
2023/05/20 04:50:12;;;;;;;;;24.67;21.67;;;;;16.67;95.62;100146.06;6317105;20;3573293;-62
2023/05/20 04:52:42;;;;;;;;;24.67;22.33;;;;;16.69;95.04;100148.63;6284563;20;3581554;-63
2023/05/20 04:55:12;;;;;;;;;27.00;24.00;;;;;17.07;95.45;100140.16;6287937;20;3595185;-63
2023/05/20 04:57:41;;;;;;;;;22.67;22.00;;;;;19.62;80.41;100149.91;6284291;20;2841029;-62
2023/05/20 05:00:11;;;;;;;;;23.00;22.33;;;;;18.25;85.34;100143.00;6316064;20;3584877;-62
2023/05/20 05:02:39;;;;;;;;;22.67;21.33;;;;;18.13;86.82;100136.75;6284812;20;3581574;-63
2023/05/20 05:05:08;;;;;;;;;22.67;21.00;;;;;18.48;85.64;100138.25;6284811;20;3572269;-63
2023/05/20 05:07:36;;;;;;;;;24.33;21.00;;;;;18.25;86.85;100137.56;6286051;20;3564866;-62
2023/05/20 05:10:05;;;;;;;;;22.67;19.33;;;;;19.86;78.74;100153.09;6286507;20;3566048;-62
2023/05/20 05:12:33;;;;;;;;;20.00;17.33;;;;;19.69;78.14;100156.53;6319256;20;3563814;-63
2023/05/20 05:15:01;;;;;;;;;20.00;17.00;;;;;18.76;80.57;100144.03;6282003;20;2842019;-63
2023/05/20 05:17:30;;;;;;;;;21.00;18.67;;;;;18.17;85.02;100150.97;6281818;20;3559665;-64
2023/05/20 05:19:58;;;;;;;;;21.00;19.00;;;;;18.00;86.63;100141.50;6287114;20;3575289;-64
2023/05/20 05:22:26;;;;;;;;;17.00;17.00;;;;;18.14;86.17;100146.66;6281158;20;2833589;-64
2023/05/20 05:24:55;;;;;;;;;18.33;16.67;;;;;17.96;87.33;100140.06;6284603;20;3561717;-63
2023/05/20 05:27:23;;;;;;;;;20.50;20.00;;;;;18.17;84.50;100140.09;6276936;20;2839867;-64
2023/05/20 05:29:51;;;;;;;;;19.00;18.00;;;;;18.14;85.06;100141.22;6283685;20;2830902;-65
2023/05/20 05:32:19;;;;;;;;;19.50;19.50;;;;;18.07;84.59;100134.56;6284597;20;2841989;-64
2023/05/20 05:34:47;;;;;;;;;19.00;19.00;;;;;17.89;85.06;100131.56;6284731;20;2487786;-64
2023/05/20 05:37:15;;;;;;;;;19.67;19.67;;;;;18.01;85.19;100134.22;6289012;20;3558604;-64
2023/05/20 05:39:43;;;;;;;;;21.00;19.50;;;;;17.95;83.72;100122.03;6281365;20;2835825;-63
2023/05/20 05:42:11;;;;;;;;;19.00;18.00;;;;;17.75;83.87;100119.13;6283039;20;2835874;-63
2023/05/20 05:44:40;;;;;;;;;18.33;17.00;;;;;17.81;84.72;100131.34;6289623;20;3564869;-64
2023/05/20 05:47:08;;;;;;;;;23.00;21.00;;;;;17.64;85.52;100123.72;6314715;20;2827410;-63
2023/05/20 05:49:36;;;;;;;;;21.00;21.00;;;;;17.90;85.31;100121.56;6287787;20;3574240;-63
2023/05/20 05:52:05;;;;;;;;;20.33;19.33;;;;;18.04;84.91;100118.53;6313987;20;2841015;-64
2023/05/20 05:54:34;;;;;;;;;18.50;18.00;;;;;18.14;84.11;100118.56;6315789;20;2826314;-63
2023/05/20 05:57:02;;;;;;;;;19.00;18.00;;;;;18.39;84.81;100122.75;6288153;20;3559158;-64
2023/05/20 05:59:33;;;;;;;;;16.67;16.67;;;;;18.81;83.64;100125.44;6320255;20;3564824;-63
2023/05/20 06:02:01;;;;;;;;;19.00;18.00;;;;;18.82;82.64;100132.59;6284217;20;2839873;-64
2023/05/20 06:04:29;;;;;;;;;20.00;20.00;;;;;18.77;81.98;100140.31;6283267;20;2833803;-64
2023/05/20 06:06:58;;;;;;;;;16.00;16.00;;;;;18.71;81.86;100143.56;6287723;20;3547156;-64
2023/05/20 06:09:26;;;;;;;;;23.33;19.67;;;;;18.78;80.74;100132.03;6319895;20;3577352;-63
2023/05/20 06:11:54;;;;;;;;;16.67;15.67;;;;;18.56;79.02;100124.88;6289265;20;3562749;-64
2023/05/20 06:14:22;;;;;;;;;22.00;19.33;;;;;18.79;79.94;100136.47;6316943;20;3572149;-63
2023/05/20 06:16:50;;;;;;;;;20.50;20.00;;;;;19.08;80.09;100141.16;6285039;20;2829600;-64
2023/05/20 06:19:19;;;;;;;;;18.33;17.00;;;;;18.94;78.89;100138.81;6282870;20;2839887;-63
2023/05/20 06:21:48;;;;;;;;;18.67;18.67;;;;;18.89;78.88;100141.94;6321383;20;3565891;-64
2023/05/20 06:24:16;;;;;;;;;21.67;21.67;;;;;19.08;78.93;100139.28;6285766;20;3575252;-64
2023/05/20 06:26:44;;;;;;;;;20.33;20.33;;;;;19.03;78.24;100147.00;6279732;20;3581509;-64
2023/05/20 06:29:13;;;;;;;;;22.33;19.00;;;;;19.33;77.97;100138.97;6286226;20;3563798;-65
2023/05/20 06:31:41;;;;;;;;;18.00;16.50;;;;;19.50;76.89;100144.56;6285057;20;2834657;-64
2023/05/20 06:34:09;;;;;;;;;19.67;19.67;;;;;19.43;77.36;100142.53;6287885;20;3579594;-63
2023/05/20 06:36:37;;;;;;;;;20.00;19.33;;;;;19.49;77.33;100137.41;6280711;20;2491927;-64
2023/05/20 06:39:11;;;;;;;;;19.33;17.00;;;;;19.67;76.45;100143.06;6315549;20;3577412;-63
2023/05/20 06:41:39;;;;;;;;;22.00;20.67;;;;;19.78;76.77;100136.63;6285822;20;3556551;-64
2023/05/20 06:44:07;;;;;;;;;21.00;19.33;;;;;20.08;74.83;100135.59;6284567;20;3569228;-63
2023/05/20 06:46:36;;;;;;;;;24.00;20.00;;;;;20.53;75.34;100140.41;6281178;20;2837800;-63
2023/05/20 06:49:04;;;;;;;;;20.33;18.00;;;;;20.61;74.81;100146.00;6288798;20;3556510;-63
2023/05/20 06:51:32;;;;;;;;;19.00;19.00;;;;;20.75;72.99;100144.69;6314795;20;2837844;-63
2023/05/20 06:54:00;;;;;;;;;20.33;18.67;;;;;20.56;72.24;100144.72;6286299;20;3572202;-63
2023/05/20 06:56:29;;;;;;;;;20.00;19.00;;;;;21.10;73.88;100137.66;6279050;20;2831560;-63
2023/05/20 06:58:57;;;;;;;;;20.67;18.33;;;;;21.40;72.16;100143.84;6288881;20;3573167;-62
2023/05/20 07:01:25;;;;;;;;;20.67;19.33;;;;;21.43;72.46;100132.59;6282642;20;3573294;-63
2023/05/20 07:03:53;;;;;;;;;17.50;16.50;;;;;21.83;70.65;100143.13;6276427;20;2824365;-64
2023/05/20 07:06:22;;;;;;;;;17.00;17.00;;;;;21.97;68.70;100138.13;6281172;20;2826347;-62
2023/05/20 07:08:50;;;;;;;;;20.50;18.50;;;;;21.91;70.24;100136.88;6282638;20;2839931;-65
2023/05/20 07:11:20;;;;;;;;;22.33;20.00;;;;;22.05;68.37;100138.19;6280855;20;2844123;-63
2023/05/20 07:13:49;;;;;;;;;21.67;19.33;;;;;22.67;68.19;100135.41;6314693;20;3574275;-63
2023/05/20 07:16:18;;;;;;;;;19.50;19.00;;;;;22.34;67.59;100146.16;6279438;20;2834676;-63
2023/05/20 07:18:46;;;;;;;;;21.67;19.00;;;;;22.41;66.93;100132.66;6284388;20;3567321;-64
2023/05/20 07:21:14;;;;;;;;;18.00;17.00;;;;;22.34;68.65;100138.78;6284417;20;3569053;-62
2023/05/20 07:23:42;;;;;;;;;19.67;18.00;;;;;22.73;67.03;100137.53;6284778;20;3583602;-62
2023/05/20 07:26:11;;;;;;;;;21.00;19.00;;;;;23.13;65.85;100138.78;6284149;20;3568075;-63
2023/05/20 07:28:39;;;;;;;;;20.33;19.00;;;;;23.15;64.80;100136.75;6286883;20;3567334;-63
2023/05/20 07:31:07;;;;;;;;;18.33;18.33;;;;;22.95;63.02;100147.91;6284058;20;3566922;-63
2023/05/20 07:33:35;;;;;;;;;16.67;12.00;;;;;23.08;63.55;100141.16;6285184;20;2785882;-64
2023/05/20 07:36:04;;;;;;;;;20.00;19.33;;;;;23.03;63.42;100138.06;6317455;20;3559652;-64
2023/05/20 07:38:32;;;;;;;;;19.00;18.00;;;;;22.86;63.54;100143.41;6283354;20;3509675;-64
2023/05/20 07:41:00;;;;;;;;;23.67;21.33;;;;;23.43;62.93;100140.97;6314076;20;3582672;-64
2023/05/20 07:43:29;;;;;;;;;20.67;20.33;;;;;23.20;61.76;100145.34;6284371;20;3584736;-64
2023/05/20 07:45:57;;;;;;;;;17.00;16.33;;;;;23.36;63.79;100134.44;6280666;20;2487882;-64
2023/05/20 07:48:25;;;;;;;;;20.00;18.33;;;;;23.81;62.11;100138.69;6317516;20;3569041;-64
2023/05/20 07:50:56;;;;;;;;;22.67;21.67;;;;;24.01;63.01;100139.22;6283273;20;3585706;-64
2023/05/20 07:53:25;;;;;;;;;13.67;13.33;;;;;24.57;60.03;100144.91;6283976;20;3520041;-62
2023/05/20 07:55:53;;;;;;;;;20.00;17.67;;;;;23.98;58.89;100138.69;6283028;20;3565919;-65
2023/05/20 07:58:21;;;;;;;;;17.33;15.00;;;;;23.53;62.06;100140.81;6284271;20;3543053;-63
2023/05/20 08:00:50;;;;;;;;;21.00;18.67;;;;;23.93;60.76;100143.81;6280383;20;3569089;-62
2023/05/20 08:03:18;;;;;;;;;12.00;11.00;;;;;23.92;60.14;100140.22;6293633;20;3511723;-65
2023/05/20 08:05:46;;;;;;;;;19.00;18.00;;;;;23.44;61.02;100131.72;6280648;20;3577389;-64
2023/05/20 08:08:16;;;;;;;;;22.33;20.00;;;;;23.08;61.70;100127.47;6281119;20;3578478;-62
2023/05/20 08:10:44;;;;;;;;;22.67;22.67;;;;;23.45;62.27;100127.06;6284723;20;3586836;-65
2023/05/20 08:13:12;;;;;;;;;20.00;18.33;;;;;23.62;61.79;100128.00;6286515;20;3573289;-65
2023/05/20 08:15:40;;;;;;;;;25.00;23.33;;;;;23.86;60.98;100125.31;6282245;20;3576332;-60
2023/05/20 08:18:08;;;;;;;;;18.33;18.00;;;;;24.13;59.22;100130.66;6273317;20;3567960;-62
2023/05/20 08:20:37;;;;;;;;;20.00;18.33;;;;;24.09;59.98;100119.13;6285756;20;3571108;-64
2023/05/20 08:23:06;;;;;;;;;19.00;16.00;;;;;24.42;59.17;100119.13;6281587;20;2835689;-61
2023/05/20 08:25:34;;;;;;;;;18.00;17.00;;;;;23.96;59.04;100113.31;6316013;20;3559676;-63
2023/05/20 08:28:06;;;;;;;;;20.00;19.00;;;;;23.81;59.60;100114.00;6280822;20;3566984;-62
2023/05/20 08:30:34;;;;;;;;;21.33;19.33;;;;;23.92;60.45;100117.44;6281089;20;3566933;-63
2023/05/20 08:33:02;;;;;;;;;23.00;20.33;;;;;25.07;59.57;100124.50;6285708;20;3581542;-63
2023/05/20 08:35:30;;;;;;;;;21.00;19.00;;;;;24.69;57.15;100126.16;6282929;20;3592059;-64
2023/05/20 08:38:00;;;;;;;;;20.67;19.00;;;;;24.77;56.95;100123.38;6288036;20;3560903;-64
2023/05/20 08:40:28;;;;;;;;;22.00;21.00;;;;;24.96;58.06;100125.75;6286946;20;2831536;-62
2023/05/20 08:42:58;;;;;;;;;19.33;18.67;;;;;24.69;58.10;100118.75;6289475;20;3577363;-62
2023/05/20 08:45:27;;;;;;;;;24.00;22.33;;;;;25.39;58.47;100119.91;6291188;20;3578880;-61
2023/05/20 08:47:57;;;;;;;;;20.00;17.00;;;;;24.63;57.45;100116.72;6282921;20;2825297;-61
2023/05/20 08:50:26;;;;;;;;;19.67;19.00;;;;;25.31;58.09;100114.47;6289089;20;3559628;-60
2023/05/20 08:52:54;;;;;;;;;22.00;19.33;;;;;25.40;57.78;100113.38;6287380;20;3575280;-62
2023/05/20 08:55:51;;;;;;;;;23.00;21.00;;;;;25.02;58.00;100104.94;6289616;20;3580516;-62
2023/05/20 08:58:22;;;;;;;;;21.00;20.00;;;;;25.03;54.51;100105.78;6285107;20;3581506;-61
2023/05/20 09:00:51;;;;;;;;;18.33;17.00;;;;;25.03;56.75;100098.41;6290676;20;3566952;-62
2023/05/20 09:03:20;;;;;;;;;21.67;21.00;;;;;24.85;56.93;100100.53;6287155;20;3581532;-62
2023/05/20 09:05:48;;;;;;;;;20.33;20.00;;;;;25.61;56.27;100099.84;6288999;20;3580877;-62
2023/05/20 09:08:17;;;;;;;;;18.67;17.00;;;;;25.83;53.58;100097.31;6288310;20;3562820;-63
2023/05/20 09:10:45;;;;;;;;;18.00;18.00;;;;;25.07;56.02;100097.03;6284512;20;2842116;-61
2023/05/20 09:13:14;;;;;;;;;18.00;18.00;;;;;25.54;56.60;100098.88;6319916;20;3572310;-61
2023/05/20 09:15:42;;;;;;;;;19.67;18.00;;;;;25.94;55.35;100102.41;6280493;20;3572199;-61
2023/05/20 09:18:10;;;;;;;;;20.67;20.67;;;;;25.70;54.42;100094.28;6284728;20;3576352;-62
2023/05/20 09:20:40;;;;;;;;;18.00;18.00;;;;;26.18;55.23;100094.97;6282852;20;2842035;-61
2023/05/20 09:23:09;;;;;;;;;22.00;20.67;;;;;25.45;55.40;100088.09;6316181;20;3559633;-63
2023/05/20 09:25:38;;;;;;;;;21.00;17.00;;;;;25.78;55.96;100091.50;6286033;20;3577345;-62
2023/05/20 09:28:07;;;;;;;;;20.00;20.00;;;;;25.69;57.10;100085.16;6284634;20;3562124;-62
2023/05/20 09:30:36;;;;;;;;;18.00;17.00;;;;;25.37;55.93;100087.09;6282795;20;2837816;-65
2023/05/20 09:33:08;;;;;;;;;21.00;17.67;;;;;25.53;57.29;100082.53;6314163;20;3577362;-64
2023/05/20 09:35:37;;;;;;;;;18.67;18.00;;;;;25.71;56.49;100071.25;6311692;20;3569010;-63
2023/05/20 09:38:09;;;;;;;;;21.00;17.33;;;;;25.42;55.95;100075.56;6317632;20;3566979;-66
2023/05/20 09:40:39;;;;;;;;;15.67;15.67;;;;;25.48;56.49;100074.81;6284018;20;3556497;-63
2023/05/20 09:43:10;;;;;;;;;16.67;16.67;;;;;25.86;55.98;100074.06;6282134;20;2832658;-63
2023/05/20 09:45:38;;;;;;;;;22.00;17.67;;;;;26.13;54.37;100069.91;6315795;20;3571099;-63
2023/05/20 09:48:09;;;;;;;;;18.67;17.67;;;;;26.28;52.69;100068.03;6278494;20;3569016;-63
2023/05/20 09:50:38;;;;;;;;;19.00;18.00;;;;;26.31;53.56;100066.81;6278506;20;3570073;-64
2023/05/20 09:53:07;;;;;;;;;17.00;17.00;;;;;26.44;52.64;100067.03;6284894;20;3566929;-63
2023/05/20 09:55:37;;;;;;;;;18.67;17.67;;;;;26.03;52.53;100064.66;6279416;20;3563928;-63
2023/05/20 09:58:08;;;;;;;;;20.67;20.00;;;;;26.38;52.56;100052.09;6279550;20;3579467;-65
2023/05/20 10:00:36;;;;;;;;;19.33;17.00;;;;;26.42;51.82;100053.44;6278522;20;3560770;-64
2023/05/20 10:03:05;;;;;;;;;21.00;20.67;;;;;26.63;53.08;100051.88;6284951;20;3571145;-62
2023/05/20 10:05:43;;;;;;;;;18.00;18.00;;;;;26.52;55.88;100055.09;6284081;20;3568092;-63
2023/05/20 10:08:33;;;;;;;;;18.67;18.67;;;;;27.20;53.67;100053.06;6286510;20;3561820;-64
2023/05/20 10:11:31;;;;;;;;;23.75;23.75;;;;;26.57;54.24;100050.72;6289516;20;3598190;-67
2023/05/20 10:14:25;;;;;;;;;21.00;19.67;;;;;27.04;51.13;100040.31;6315880;20;3563821;-63
2023/05/20 10:17:23;;;;;;;;;20.00;19.00;;;;;27.22;52.64;100038.03;6283435;20;3570342;-64
2023/05/20 10:19:58;;;;;;;;;14.00;14.00;;;;;27.03;53.93;100033.09;6286253;20;3531523;-65
2023/05/20 10:22:30;;;;;;;;;21.29;20.29;;;;;26.93;54.45;100031.50;6335041;20;3573178;-64
2023/05/20 10:25:05;;;;;;;;;21.00;18.00;;;;;27.26;50.77;100039.38;6283607;20;3517121;-66
2023/05/20 10:27:45;;;;;;;;;16.33;15.00;;;;;26.64;50.50;100035.13;6313221;20;3556523;-64
2023/05/20 10:30:19;;;;;;;;;20.33;18.33;;;;;26.90;51.38;100029.13;6282071;20;3576468;-61
2023/05/20 10:32:55;;;;;;;;;16.67;16.67;;;;;27.44;51.94;100038.09;6310585;20;2827486;-62
2023/05/20 10:35:25;;;;;;;;;20.00;18.67;;;;;27.40;52.55;100028.47;6315815;20;3563836;-63
2023/05/20 10:38:10;;;;;;;;;20.67;20.33;;;;;26.85;53.04;100020.56;6284585;20;3574387;-63
2023/05/20 10:40:39;;;;;;;;;20.00;18.67;;;;;26.98;52.80;100019.91;6286702;20;3571140;-63
2023/05/20 10:43:12;;;;;;;;;19.67;16.67;;;;;27.09;51.50;100008.41;6285731;20;3559095;-63
2023/05/20 10:45:54;;;;;;;;;17.67;16.67;;;;;27.21;51.49;100013.44;6283281;20;3563863;-65
2023/05/20 10:48:30;;;;;;;;;18.00;17.00;;;;;26.84;50.28;100018.03;6280942;20;2828504;-67
2023/05/20 10:51:04;;;;;;;;;20.33;18.33;;;;;26.60;49.98;100014.53;6285743;20;3571104;-67
2023/05/20 10:53:41;;;;;;;;;14.67;14.33;;;;;27.02;48.85;100003.84;6285151;20;3530507;-66
2023/05/20 10:56:20;;;;;;;;;16.00;16.00;;;;;26.79;50.57;100010.34;6312860;20;3556611;-67
2023/05/20 10:58:51;;;;;;;;;15.00;15.00;;;;;26.59;48.82;99999.03;6313982;20;2825427;-63
2023/05/20 11:01:25;;;;;;;;;20.00;19.00;;;;;26.93;51.97;99995.66;6286021;20;3566917;-62
2023/05/20 11:03:56;;;;;;;;;17.33;17.33;;;;;27.14;50.07;99999.53;6288172;20;3566967;-62